Time;durP1;ratioP1;P1;durP2;ratioP2;P2;SDS_P1;SDS_P2;PMS_P1;PMS_P2;Temp;Humidity;BMP_temperature;BMP_pressure;BME280_temperature;BME280_humidity;BME280_pressure;Samples;Min_cycle;Max_cycle;Signal;HPM_P1;HPM_P2
2022/03/12 00:00:52;;;;;;;8.82;4.45;;;;;;;;;;5063726;28;20044;-67
2022/03/12 00:03:18;;;;;;;10.18;4.80;;;;;;;;;;5064470;28;20052;-68
2022/03/12 00:05:59;;;;;;;10.00;4.85;;;;;;;;;;5064470;28;20048;-67
2022/03/12 00:08:46;;;;;;;10.63;4.72;;;;;;;;;;5065354;28;20044;-67
2022/03/12 00:11:13;;;;;;;7.70;4.50;;;;;;;;;;5063734;28;20049;-67
2022/03/12 00:13:40;;;;;;;9.45;4.45;;;;;;;;;;5065000;28;20524;-68
2022/03/12 00:16:09;;;;;;;7.53;4.25;;;;;;;;;;5064847;28;20037;-67
2022/03/12 00:18:36;;;;;;;9.35;4.70;;;;;;;;;;5065035;28;20152;-67
2022/03/12 00:21:04;;;;;;;9.77;4.85;;;;;;;;;;5064590;28;20045;-67
2022/03/12 00:23:30;;;;;;;7.68;4.03;;;;;;;;;;5065384;28;20115;-68
2022/03/12 00:25:58;;;;;;;8.57;4.70;;;;;;;;;;5063050;28;20769;-67
2022/03/12 00:28:24;;;;;;;8.63;4.60;;;;;;;;;;5064344;28;20059;-67
2022/03/12 00:30:51;;;;;;;8.52;4.28;;;;;;;;;;5063064;28;20076;-67
2022/03/12 00:33:21;;;;;;;9.95;4.60;;;;;;;;;;5064237;28;20040;-67
2022/03/12 00:35:54;;;;;;;7.47;4.40;;;;;;;;;;5064064;28;20036;-67
2022/03/12 00:38:22;;;;;;;9.52;4.28;;;;;;;;;;5064744;28;20048;-67
2022/03/12 00:40:49;;;;;;;8.60;4.38;;;;;;;;;;5063430;28;20051;-67
2022/03/12 00:43:15;;;;;;;8.90;4.40;;;;;;;;;;5063063;28;20052;-67
2022/03/12 00:45:42;;;;;;;7.13;4.20;;;;;;;;;;5062881;28;20118;-67
2022/03/12 00:48:08;;;;;;;9.75;4.53;;;;;;;;;;5064538;28;20041;-67
2022/03/12 00:50:34;;;;;;;8.77;4.45;;;;;;;;;;5058191;28;20390;-67
2022/03/12 00:53:01;;;;;;;8.55;4.50;;;;;;;;;;5044057;28;20045;-67
2022/03/12 00:55:27;;;;;;;9.05;4.50;;;;;;;;;;5049001;28;20521;-68
2022/03/12 00:57:54;;;;;;;8.32;4.60;;;;;;;;;;5063745;28;20123;-67
2022/03/12 01:00:21;;;;;;;7.88;4.13;;;;;;;;;;5063315;28;20041;-67
2022/03/12 01:02:47;;;;;;;11.73;4.50;;;;;;;;;;5063537;28;20049;-67
2022/03/12 01:05:15;;;;;;;8.90;4.40;;;;;;;;;;5063245;28;20090;-67
2022/03/12 01:07:41;;;;;;;9.02;4.28;;;;;;;;;;5063919;28;20625;-67
2022/03/12 01:10:07;;;;;;;9.02;4.65;;;;;;;;;;5064502;28;20076;-67
2022/03/12 01:12:34;;;;;;;8.55;4.50;;;;;;;;;;5063668;28;20082;-67
2022/03/12 01:15:00;;;;;;;8.27;4.68;;;;;;;;;;5063030;28;20727;-67
2022/03/12 01:17:26;;;;;;;8.18;4.30;;;;;;;;;;5063456;28;20051;-67
2022/03/12 01:19:52;;;;;;;10.15;4.63;;;;;;;;;;5065191;28;20075;-67
2022/03/12 01:22:20;;;;;;;8.82;4.80;;;;;;;;;;5063798;28;20051;-67
2022/03/12 01:24:47;;;;;;;10.30;5.00;;;;;;;;;;5063970;28;20114;-67
2022/03/12 01:27:15;;;;;;;11.55;4.82;;;;;;;;;;5061584;28;20554;-67
2022/03/12 01:29:41;;;;;;;7.97;4.40;;;;;;;;;;5046921;28;20093;-68
2022/03/12 01:32:07;;;;;;;8.18;4.72;;;;;;;;;;5061216;28;20078;-67
2022/03/12 01:34:33;;;;;;;9.20;4.55;;;;;;;;;;5063949;28;20178;-67
2022/03/12 01:36:59;;;;;;;7.90;4.10;;;;;;;;;;5062818;28;20131;-67
2022/03/12 01:39:25;;;;;;;9.35;4.63;;;;;;;;;;5062667;28;20060;-67
2022/03/12 01:41:52;;;;;;;8.60;4.70;;;;;;;;;;5062465;28;20037;-68
2022/03/12 01:44:18;;;;;;;8.85;4.63;;;;;;;;;;5063016;28;20105;-67
2022/03/12 01:46:45;;;;;;;11.05;4.60;;;;;;;;;;5061903;28;20051;-67
2022/03/12 01:49:16;;;;;;;10.18;4.30;;;;;;;;;;5063144;28;20051;-67
2022/03/12 01:51:44;;;;;;;9.45;4.82;;;;;;;;;;5061931;28;20044;-67
2022/03/12 01:54:10;;;;;;;9.07;4.45;;;;;;;;;;5058446;28;20112;-68
2022/03/12 01:56:38;;;;;;;7.90;4.60;;;;;;;;;;5055450;28;20048;-67
2022/03/12 01:59:04;;;;;;;8.30;4.78;;;;;;;;;;5037292;28;20036;-67
2022/03/12 02:01:31;;;;;;;10.55;5.05;;;;;;;;;;5055055;28;20611;-67
2022/03/12 02:04:00;;;;;;;9.50;4.47;;;;;;;;;;5062849;28;20037;-67
2022/03/12 02:06:27;;;;;;;8.98;4.80;;;;;;;;;;5061599;28;20055;-67
2022/03/12 02:08:55;;;;;;;7.78;4.38;;;;;;;;;;5063011;28;20131;-68
2022/03/12 02:11:27;;;;;;;8.77;4.68;;;;;;;;;;5061684;28;20044;-68
2022/03/12 02:14:02;;;;;;;8.00;4.80;;;;;;;;;;5063141;28;20414;-67
2022/03/12 02:16:28;;;;;;;8.52;4.63;;;;;;;;;;5061447;28;20048;-67
2022/03/12 02:18:54;;;;;;;9.10;4.50;;;;;;;;;;5062902;28;20044;-67
2022/03/12 02:21:29;;;;;;;9.13;4.53;;;;;;;;;;5061560;28;20036;-67
2022/03/12 02:23:56;;;;;;;8.10;4.47;;;;;;;;;;5063240;28;20658;-67
2022/03/12 02:26:22;;;;;;;7.93;4.55;;;;;;;;;;5060996;28;20048;-67
2022/03/12 02:28:48;;;;;;;8.20;4.63;;;;;;;;;;5062265;28;20130;-67
2022/03/12 02:31:15;;;;;;;7.82;4.70;;;;;;;;;;5061549;28;20048;-67
2022/03/12 02:33:43;;;;;;;7.72;4.63;;;;;;;;;;5063075;28;20115;-67
2022/03/12 02:36:13;;;;;;;10.25;4.65;;;;;;;;;;5061124;28;20040;-68
2022/03/12 02:38:40;;;;;;;7.43;4.50;;;;;;;;;;5062983;28;20119;-67
2022/03/12 02:41:10;;;;;;;8.25;4.43;;;;;;;;;;5061175;28;20044;-68
2022/03/12 02:43:43;;;;;;;9.38;4.93;;;;;;;;;;5062154;28;20052;-67
2022/03/12 02:46:10;;;;;;;9.03;4.60;;;;;;;;;;5060802;28;20080;-67
2022/03/12 02:48:36;;;;;;;8.32;4.70;;;;;;;;;;5062425;28;20093;-67
2022/03/12 02:51:04;;;;;;;8.73;5.13;;;;;;;;;;5064063;28;20072;-67
2022/03/12 02:53:30;;;;;;;7.82;4.72;;;;;;;;;;5065921;28;20094;-67
2022/03/12 02:55:56;;;;;;;10.32;4.60;;;;;;;;;;5065888;28;20044;-67
2022/03/12 02:58:22;;;;;;;7.57;4.65;;;;;;;;;;5066236;28;20045;-67
2022/03/12 03:00:49;;;;;;;7.68;4.28;;;;;;;;;;5049291;28;20044;-66
2022/03/12 03:03:16;;;;;;;9.10;4.90;;;;;;;;;;5066112;28;20613;-67
2022/03/12 03:05:47;;;;;;;7.88;4.63;;;;;;;;;;5065409;28;20662;-67
2022/03/12 03:08:18;;;;;;;7.90;4.60;;;;;;;;;;5067620;28;20040;-67
2022/03/12 03:10:45;;;;;;;9.48;5.32;;;;;;;;;;5048964;28;20090;-67
2022/03/12 03:13:17;;;;;;;7.93;4.45;;;;;;;;;;5066120;28;20135;-67
2022/03/12 03:15:49;;;;;;;7.68;4.57;;;;;;;;;;5065215;28;20044;-68
2022/03/12 03:18:16;;;;;;;8.55;4.35;;;;;;;;;;5049460;28;20132;-67
2022/03/12 03:20:42;;;;;;;7.75;4.43;;;;;;;;;;5059250;28;20052;-67
2022/03/12 03:23:09;;;;;;;7.57;4.15;;;;;;;;;;5045907;28;20072;-68
2022/03/12 03:25:35;;;;;;;9.60;4.70;;;;;;;;;;5051187;28;20432;-67
2022/03/12 03:28:01;;;;;;;8.77;4.75;;;;;;;;;;5065202;28;20054;-67
2022/03/12 03:30:32;;;;;;;7.65;4.43;;;;;;;;;;5064886;28;20040;-67
2022/03/12 03:32:58;;;;;;;7.50;4.28;;;;;;;;;;5065250;28;20068;-67
2022/03/12 03:35:24;;;;;;;7.53;4.38;;;;;;;;;;5061177;28;20744;-67
2022/03/12 03:37:50;;;;;;;9.25;4.95;;;;;;;;;;5045781;28;20126;-67
2022/03/12 03:40:16;;;;;;;8.48;5.07;;;;;;;;;;5048864;28;20124;-67
2022/03/12 03:42:42;;;;;;;8.40;4.90;;;;;;;;;;5065030;28;20052;-67
2022/03/12 03:45:08;;;;;;;8.25;4.60;;;;;;;;;;5064504;28;20055;-67
2022/03/12 03:47:34;;;;;;;8.65;4.93;;;;;;;;;;5066710;28;20041;-68
2022/03/12 03:50:00;;;;;;;7.75;4.97;;;;;;;;;;5064466;28;20074;-68
2022/03/12 03:52:26;;;;;;;7.72;4.47;;;;;;;;;;5046890;28;20044;-68
2022/03/12 03:54:52;;;;;;;7.68;4.70;;;;;;;;;;5034603;28;20593;-67
2022/03/12 03:57:19;;;;;;;9.65;4.97;;;;;;;;;;5063486;28;20052;-68
2022/03/12 03:59:45;;;;;;;8.93;4.65;;;;;;;;;;5065526;28;20048;-68
2022/03/12 04:02:11;;;;;;;9.60;4.72;;;;;;;;;;5063556;28;20052;-67
2022/03/12 04:04:38;;;;;;;7.88;4.70;;;;;;;;;;5065302;28;20051;-67
2022/03/12 04:07:05;;;;;;;9.32;4.95;;;;;;;;;;5063826;28;20506;-67
2022/03/12 04:09:31;;;;;;;8.68;4.90;;;;;;;;;;5065486;28;20079;-67
2022/03/12 04:11:57;;;;;;;8.07;4.78;;;;;;;;;;5063542;28;20617;-67
2022/03/12 04:14:25;;;;;;;9.02;4.53;;;;;;;;;;5065369;28;20596;-67
2022/03/12 04:16:52;;;;;;;9.02;4.60;;;;;;;;;;5049547;28;20063;-67
2022/03/12 04:19:18;;;;;;;9.27;4.60;;;;;;;;;;5044770;28;20044;-67
2022/03/12 04:21:45;;;;;;;9.57;5.18;;;;;;;;;;5058706;28;20127;-67
2022/03/12 04:24:13;;;;;;;8.07;4.68;;;;;;;;;;5064909;28;20078;-67
2022/03/12 04:26:40;;;;;;;9.05;4.90;;;;;;;;;;5063783;28;20728;-67
2022/03/12 04:29:08;;;;;;;8.55;4.60;;;;;;;;;;5064230;28;20449;-67
2022/03/12 04:31:35;;;;;;;7.43;4.68;;;;;;;;;;5063502;28;20047;-67
2022/03/12 04:34:01;;;;;;;7.82;4.60;;;;;;;;;;5064270;28;20044;-67
2022/03/12 04:36:27;;;;;;;7.55;4.22;;;;;;;;;;5052721;28;20044;-67
2022/03/12 04:38:53;;;;;;;8.32;4.97;;;;;;;;;;5044866;28;20127;-67
2022/03/12 04:41:19;;;;;;;11.07;5.22;;;;;;;;;;5055050;28;20044;-67
2022/03/12 04:43:47;;;;;;;8.13;4.82;;;;;;;;;;5064418;28;20551;-67
2022/03/12 04:46:13;;;;;;;8.25;4.82;;;;;;;;;;5063236;28;20074;-68
2022/03/12 04:48:39;;;;;;;8.88;5.13;;;;;;;;;;5065732;28;20040;-67
2022/03/12 04:51:05;;;;;;;8.10;4.65;;;;;;;;;;5063131;28;20079;-68
2022/03/12 04:53:32;;;;;;;8.95;4.50;;;;;;;;;;5064392;28;20086;-67
2022/03/12 04:55:58;;;;;;;8.77;4.72;;;;;;;;;;5063589;28;20048;-67
2022/03/12 04:58:24;;;;;;;7.43;4.43;;;;;;;;;;5064147;28;20056;-68
2022/03/12 05:00:50;;;;;;;8.75;4.63;;;;;;;;;;5063288;28;20048;-67
2022/03/12 05:03:19;;;;;;;8.15;4.65;;;;;;;;;;5062625;28;20059;-68
2022/03/12 05:05:47;;;;;;;9.45;4.68;;;;;;;;;;5062739;28;20474;-67
2022/03/12 05:08:14;;;;;;;7.90;4.40;;;;;;;;;;5063989;28;20046;-67
2022/03/12 05:10:41;;;;;;;9.43;4.10;;;;;;;;;;5057227;28;20049;-67
2022/03/12 05:13:07;;;;;;;8.10;4.88;;;;;;;;;;5043886;28;20546;-67
2022/03/12 05:15:38;;;;;;;9.70;4.80;;;;;;;;;;5048090;28;20081;-67
2022/03/12 05:18:07;;;;;;;7.45;4.32;;;;;;;;;;5064779;28;20086;-67
2022/03/12 05:20:35;;;;;;;7.07;4.18;;;;;;;;;;5062144;28;20052;-67
2022/03/12 05:23:01;;;;;;;8.40;4.60;;;;;;;;;;5064297;28;20048;-67
2022/03/12 05:25:27;;;;;;;8.32;4.88;;;;;;;;;;5062175;28;20135;-67
2022/03/12 05:27:54;;;;;;;7.75;4.20;;;;;;;;;;5046318;28;20048;-67
2022/03/12 05:30:21;;;;;;;7.75;4.75;;;;;;;;;;5045986;28;20033;-67
2022/03/12 05:32:47;;;;;;;8.10;4.38;;;;;;;;;;5062755;28;20070;-67
2022/03/12 05:35:15;;;;;;;8.88;4.90;;;;;;;;;;5045569;28;20047;-68
2022/03/12 05:37:41;;;;;;;8.52;4.60;;;;;;;;;;5063483;28;20049;-67
2022/03/12 05:40:09;;;;;;;8.40;3.97;;;;;;;;;;5061992;28;20051;-68
2022/03/12 05:42:35;;;;;;;10.23;4.75;;;;;;;;;;5046150;28;20525;-67
2022/03/12 05:45:04;;;;;;;7.07;4.18;;;;;;;;;;5062937;28;20051;-67
2022/03/12 05:47:34;;;;;;;7.15;4.15;;;;;;;;;;5063745;28;20463;-67
2022/03/12 05:50:00;;;;;;;7.95;4.40;;;;;;;;;;5062751;28;20044;-67
2022/03/12 05:52:26;;;;;;;9.27;4.45;;;;;;;;;;5046373;28;20730;-67
2022/03/12 05:54:52;;;;;;;7.43;4.43;;;;;;;;;;5063200;28;20062;-67
2022/03/12 05:57:18;;;;;;;7.70;4.47;;;;;;;;;;5061453;28;20048;-67
2022/03/12 05:59:44;;;;;;;8.32;4.45;;;;;;;;;;5063190;28;20175;-67
2022/03/12 06:02:10;;;;;;;8.05;4.47;;;;;;;;;;5061847;28;20053;-67
2022/03/12 06:04:37;;;;;;;7.28;4.57;;;;;;;;;;5047086;28;20128;-67
2022/03/12 06:07:03;;;;;;;8.82;4.40;;;;;;;;;;5062497;28;20036;-67
2022/03/12 06:09:29;;;;;;;8.38;4.53;;;;;;;;;;5046677;28;20075;-68
2022/03/12 06:11:57;;;;;;;7.35;4.00;;;;;;;;;;5046153;28;20532;-68
2022/03/12 06:14:24;;;;;;;8.52;4.65;;;;;;;;;;5063702;28;20132;-67
2022/03/12 06:16:50;;;;;;;8.02;4.32;;;;;;;;;;5061353;28;20040;-67
2022/03/12 06:19:19;;;;;;;9.10;4.82;;;;;;;;;;5062467;28;20040;-67
2022/03/12 06:21:45;;;;;;;7.97;4.50;;;;;;;;;;5061775;28;20056;-67
2022/03/12 06:24:12;;;;;;;7.13;4.20;;;;;;;;;;5062623;28;20405;-67
2022/03/12 06:26:39;;;;;;;8.35;5.00;;;;;;;;;;5062069;28;20639;-67
2022/03/12 06:29:11;;;;;;;8.13;4.53;;;;;;;;;;5063127;28;20044;-67
2022/03/12 06:31:37;;;;;;;9.07;4.40;;;;;;;;;;5060606;28;20116;-67
2022/03/12 06:34:03;;;;;;;7.60;4.40;;;;;;;;;;5064098;28;20497;-67
2022/03/12 06:36:30;;;;;;;7.05;4.20;;;;;;;;;;5061219;28;20326;-67
2022/03/12 06:38:56;;;;;;;7.97;4.70;;;;;;;;;;5063971;28;20052;-67
2022/03/12 06:41:23;;;;;;;8.90;4.50;;;;;;;;;;5063068;28;20575;-67
2022/03/12 06:43:55;;;;;;;6.82;4.07;;;;;;;;;;5062577;28;20111;-67
2022/03/12 06:46:21;;;;;;;7.35;4.13;;;;;;;;;;5050095;28;20129;-67
2022/03/12 06:48:47;;;;;;;7.78;4.57;;;;;;;;;;5042262;28;20714;-67
2022/03/12 06:51:14;;;;;;;8.38;4.60;;;;;;;;;;5052078;28;20575;-68
2022/03/12 06:53:40;;;;;;;7.30;4.25;;;;;;;;;;5062663;28;20510;-68
2022/03/12 06:56:07;;;;;;;7.85;4.50;;;;;;;;;;5063156;28;20045;-67
2022/03/12 06:58:34;;;;;;;9.38;4.30;;;;;;;;;;5062325;28;20041;-67
2022/03/12 07:01:00;;;;;;;8.77;4.30;;;;;;;;;;5062607;28;20525;-67
2022/03/12 07:03:26;;;;;;;9.45;4.20;;;;;;;;;;5064288;28;20079;-67
2022/03/12 07:05:52;;;;;;;7.30;4.30;;;;;;;;;;5061288;28;20076;-67
2022/03/12 07:08:19;;;;;;;6.93;4.28;;;;;;;;;;5064103;28;20636;-67
2022/03/12 07:10:46;;;;;;;8.05;4.22;;;;;;;;;;5062000;28;20043;-67
2022/03/12 07:13:12;;;;;;;8.18;4.68;;;;;;;;;;5061841;28;20040;-67
2022/03/12 07:15:39;;;;;;;6.30;3.72;;;;;;;;;;5059786;28;20041;-67
2022/03/12 07:18:05;;;;;;;8.05;4.20;;;;;;;;;;5061174;28;20036;-67
2022/03/12 07:20:31;;;;;;;7.50;4.47;;;;;;;;;;5061794;28;20051;-67
2022/03/12 07:22:57;;;;;;;7.30;4.25;;;;;;;;;;5062008;28;20048;-67
2022/03/12 07:25:25;;;;;;;7.93;4.22;;;;;;;;;;5060889;28;20650;-67
2022/03/12 07:27:52;;;;;;;7.95;4.20;;;;;;;;;;5061528;28;20136;-67
2022/03/12 07:30:19;;;;;;;6.53;3.80;;;;;;;;;;5051476;28;20045;-67
2022/03/12 07:32:45;;;;;;;7.93;4.38;;;;;;;;;;5040384;28;20037;-68
2022/03/12 07:35:12;;;;;;;8.65;4.18;;;;;;;;;;5030210;28;20045;-67
2022/03/12 07:37:38;;;;;;;7.22;3.90;;;;;;;;;;5032106;28;21315;-67
2022/03/12 07:40:05;;;;;;;7.35;4.18;;;;;;;;;;5024666;28;20056;-68
2022/03/12 07:42:31;;;;;;;7.30;4.40;;;;;;;;;;5033011;28;20045;-68
2022/03/12 07:44:57;;;;;;;7.47;4.15;;;;;;;;;;5047326;28;20047;-68
2022/03/12 07:47:23;;;;;;;9.25;4.95;;;;;;;;;;5038871;28;20052;-68
2022/03/12 07:49:49;;;;;;;7.97;4.00;;;;;;;;;;5030406;28;20059;-68
2022/03/12 07:52:15;;;;;;;9.05;4.38;;;;;;;;;;5056158;28;20103;-68
2022/03/12 07:54:41;;;;;;;7.13;3.63;;;;;;;;;;5045803;28;20072;-68
2022/03/12 07:57:07;;;;;;;10.90;4.43;;;;;;;;;;5055417;28;20128;-68
2022/03/12 07:59:34;;;;;;;7.20;4.20;;;;;;;;;;5056931;28;20493;-69
2022/03/12 08:02:00;;;;;;;9.00;4.50;;;;;;;;;;5053851;28;20716;-68
2022/03/12 08:04:26;;;;;;;7.60;4.22;;;;;;;;;;5047710;28;20057;-69
2022/03/12 08:06:52;;;;;;;7.53;4.30;;;;;;;;;;5047844;28;20080;-68
2022/03/12 08:09:18;;;;;;;10.68;4.45;;;;;;;;;;5046343;28;20049;-68
2022/03/12 08:11:44;;;;;;;8.07;4.38;;;;;;;;;;5050816;28;20039;-67
2022/03/12 08:14:15;;;;;;;7.43;4.43;;;;;;;;;;5031524;28;20040;-67
2022/03/12 08:16:41;;;;;;;7.97;4.30;;;;;;;;;;5053397;28;20048;-67
2022/03/12 08:19:08;;;;;;;7.30;4.03;;;;;;;;;;5052766;28;20694;-68
2022/03/12 08:21:35;;;;;;;8.30;4.30;;;;;;;;;;5053262;28;20652;-68
2022/03/12 08:24:04;;;;;;;8.10;4.50;;;;;;;;;;5052483;28;20075;-67
2022/03/12 08:26:32;;;;;;;7.47;4.13;;;;;;;;;;5027471;28;20052;-68
2022/03/12 08:28:58;;;;;;;7.25;4.15;;;;;;;;;;5045842;28;20064;-68
2022/03/12 08:31:24;;;;;;;8.13;4.65;;;;;;;;;;5050146;28;20690;-68
2022/03/12 08:33:51;;;;;;;7.85;4.70;;;;;;;;;;5052338;28;20127;-68
2022/03/12 08:36:18;;;;;;;7.53;4.53;;;;;;;;;;5030972;28;20048;-68
2022/03/12 08:38:44;;;;;;;7.40;4.30;;;;;;;;;;5054396;28;20053;-68
2022/03/12 08:41:11;;;;;;;8.13;4.55;;;;;;;;;;5051377;28;20524;-68
2022/03/12 08:43:37;;;;;;;9.07;4.47;;;;;;;;;;5050834;28;20041;-68
2022/03/12 08:46:05;;;;;;;8.10;4.45;;;;;;;;;;5051346;28;20116;-68
2022/03/12 08:48:31;;;;;;;9.35;4.75;;;;;;;;;;5046815;28;20190;-68
2022/03/12 08:50:57;;;;;;;8.20;4.68;;;;;;;;;;5053517;28;20036;-68
2022/03/12 08:53:23;;;;;;;8.07;4.68;;;;;;;;;;5047070;28;20610;-67
2022/03/12 08:55:49;;;;;;;6.85;4.18;;;;;;;;;;5048701;28;20045;-68
2022/03/12 08:58:15;;;;;;;8.02;4.18;;;;;;;;;;5051202;28;20072;-68
2022/03/12 09:00:42;;;;;;;8.25;5.07;;;;;;;;;;5055985;28;20049;-68
2022/03/12 09:03:09;;;;;;;7.93;4.60;;;;;;;;;;5046522;28;20036;-68
2022/03/12 09:05:35;;;;;;;7.40;4.22;;;;;;;;;;5062531;28;20049;-67
2022/03/12 09:08:01;;;;;;;8.38;4.55;;;;;;;;;;5063341;28;20051;-67
2022/03/12 09:10:27;;;;;;;8.45;4.40;;;;;;;;;;5059684;28;20751;-70
2022/03/12 09:12:53;;;;;;;9.00;4.43;;;;;;;;;;5062421;28;20075;-68
2022/03/12 09:15:22;;;;;;;11.10;4.93;;;;;;;;;;5061807;28;20728;-68
2022/03/12 09:17:48;;;;;;;8.73;4.68;;;;;;;;;;5052595;28;20124;-68
2022/03/12 09:20:14;;;;;;;7.88;4.68;;;;;;;;;;5044985;28;20056;-68
2022/03/12 09:22:41;;;;;;;8.05;4.80;;;;;;;;;;5046538;28;20529;-68
2022/03/12 09:25:13;;;;;;;7.85;4.20;;;;;;;;;;5062246;28;20463;-68
2022/03/12 09:27:40;;;;;;;8.07;4.18;;;;;;;;;;5061685;28;20056;-68
2022/03/12 09:30:06;;;;;;;7.93;4.32;;;;;;;;;;5062114;28;20473;-68
2022/03/12 09:32:32;;;;;;;8.35;4.53;;;;;;;;;;5023725;28;20152;-68
2022/03/12 09:34:58;;;;;;;7.20;3.90;;;;;;;;;;5046339;28;20039;-68
2022/03/12 09:37:25;;;;;;;7.35;4.70;;;;;;;;;;5062781;28;20046;-67
2022/03/12 09:39:51;;;;;;;9.02;4.68;;;;;;;;;;5064598;28;20604;-67
2022/03/12 09:42:17;;;;;;;7.25;4.03;;;;;;;;;;5061588;28;20056;-67
2022/03/12 09:44:43;;;;;;;7.88;4.43;;;;;;;;;;5062862;28;20491;-68
2022/03/12 09:47:10;;;;;;;9.23;4.60;;;;;;;;;;5051734;28;20911;-68
2022/03/12 09:49:36;;;;;;;7.28;4.25;;;;;;;;;;5044121;28;20159;-68
2022/03/12 09:52:03;;;;;;;13.55;4.75;;;;;;;;;;5025864;28;20515;-68
2022/03/12 09:54:30;;;;;;;8.50;4.10;;;;;;;;;;5040207;28;20606;-68
2022/03/12 09:56:56;;;;;;;11.13;4.65;;;;;;;;;;5041920;28;20037;-69
2022/03/12 09:59:22;;;;;;;10.10;5.13;;;;;;;;;;5035786;28;20044;-69
2022/03/12 10:01:48;;;;;;;8.50;4.35;;;;;;;;;;5034297;28;20086;-69
2022/03/12 10:04:14;;;;;;;9.18;4.60;;;;;;;;;;5036509;28;20028;-69
2022/03/12 10:06:40;;;;;;;12.98;4.75;;;;;;;;;;5031497;28;20036;-69
2022/03/12 10:09:07;;;;;;;11.82;4.88;;;;;;;;;;5050377;28;20048;-69
2022/03/12 10:11:34;;;;;;;15.25;5.72;;;;;;;;;;5030181;28;20040;-69
2022/03/12 10:14:00;;;;;;;12.55;4.50;;;;;;;;;;5044419;28;20040;-69
2022/03/12 10:16:29;;;;;;;8.07;4.18;;;;;;;;;;5045457;28;20049;-69
2022/03/12 10:18:55;;;;;;;9.27;4.20;;;;;;;;;;5042350;28;20120;-69
2022/03/12 10:21:22;;;;;;;8.52;4.05;;;;;;;;;;5053702;28;20044;-70
2022/03/12 10:23:48;;;;;;;12.85;4.70;;;;;;;;;;5061014;28;20063;-68
2022/03/12 10:26:14;;;;;;;8.40;4.13;;;;;;;;;;5056324;28;20056;-69
2022/03/12 10:28:40;;;;;;;10.65;4.35;;;;;;;;;;5062895;28;20036;-69
2022/03/12 10:31:08;;;;;;;8.80;4.80;;;;;;;;;;5050708;28;20045;-68
2022/03/12 10:33:35;;;;;;;7.85;3.90;;;;;;;;;;5028325;28;20044;-69
2022/03/12 10:36:10;;;;;;;9.00;4.28;;;;;;;;;;5024737;28;20032;-68
2022/03/12 10:38:44;;;;;;;9.52;4.40;;;;;;;;;;5043838;28;20049;-68
2022/03/12 10:41:11;;;;;;;11.48;4.75;;;;;;;;;;5055226;28;20101;-68
2022/03/12 10:43:43;;;;;;;12.98;4.97;;;;;;;;;;5038001;28;20123;-70
2022/03/12 10:46:10;;;;;;;8.45;4.38;;;;;;;;;;5041915;28;20029;-69
2022/03/12 10:48:39;;;;;;;8.20;4.50;;;;;;;;;;5047512;28;20151;-68
2022/03/12 10:51:05;;;;;;;7.90;4.22;;;;;;;;;;5048070;28;20044;-68
2022/03/12 10:53:32;;;;;;;8.30;4.47;;;;;;;;;;5056596;28;20618;-68
2022/03/12 10:55:58;;;;;;;8.27;4.35;;;;;;;;;;5046833;28;20622;-69
2022/03/12 10:58:24;;;;;;;9.63;4.00;;;;;;;;;;5042575;28;20098;-69
2022/03/12 11:00:54;;;;;;;8.30;4.90;;;;;;;;;;5049277;28;20036;-69
2022/03/12 11:03:31;;;;;;;8.02;3.97;;;;;;;;;;5061922;28;20045;-68
2022/03/12 11:05:57;;;;;;;7.25;4.15;;;;;;;;;;5061572;28;20045;-70
2022/03/12 11:08:33;;;;;;;9.38;4.85;;;;;;;;;;5062767;28;20048;-68
2022/03/12 11:11:00;;;;;;;9.80;4.05;;;;;;;;;;5058021;28;21667;-68
2022/03/12 11:13:48;;;;;;;9.23;4.22;;;;;;;;;;5049286;28;20041;-68
2022/03/12 11:16:17;;;;;;;7.15;4.00;;;;;;;;;;5050498;28;20647;-68
2022/03/12 11:18:52;;;;;;;9.80;4.47;;;;;;;;;;5053618;28;20120;-69
2022/03/12 11:21:29;;;;;;;9.25;4.00;;;;;;;;;;5050928;28;20696;-69
2022/03/12 11:23:58;;;;;;;17.35;4.30;;;;;;;;;;5050641;28;20098;-70
2022/03/12 11:26:24;;;;;;;9.20;3.97;;;;;;;;;;5053269;28;20056;-68
2022/03/12 11:28:58;;;;;;;9.50;4.05;;;;;;;;;;5049418;28;20590;-68
2022/03/12 11:31:24;;;;;;;;;;;;;;;;;;5050237;28;20055;-68
2022/03/12 11:33:51;;;;;;;10.25;4.63;;;;;;;;;;5034921;28;19917;-68
2022/03/12 11:36:17;;;;;;;9.35;4.68;;;;;;;;;;5055676;28;20052;-68
2022/03/12 11:38:50;;;;;;;8.82;4.30;;;;;;;;;;5045104;28;20041;-68
2022/03/12 11:41:24;;;;;;;8.43;4.45;;;;;;;;;;5057151;28;20064;-68
2022/03/12 11:43:50;;;;;;;9.07;4.35;;;;;;;;;;5068285;28;20036;-68
2022/03/12 11:46:16;;;;;;;7.60;4.30;;;;;;;;;;5062894;28;20120;-67
2022/03/12 11:48:42;;;;;;;8.15;4.22;;;;;;;;;;5061157;28;20124;-66
2022/03/12 11:51:19;;;;;;;10.15;4.10;;;;;;;;;;5057492;28;20044;-69
2022/03/12 11:53:45;;;;;;;11.30;4.50;;;;;;;;;;5050396;28;20036;-69
2022/03/12 11:56:11;;;;;;;8.40;4.28;;;;;;;;;;5032814;28;20037;-70
2022/03/12 11:58:37;;;;;;;9.63;4.30;;;;;;;;;;5052941;28;20047;-70
2022/03/12 12:01:06;;;;;;;9.63;4.70;;;;;;;;;;5052041;28;20119;-69
2022/03/12 12:03:32;;;;;;;10.45;4.45;;;;;;;;;;5050743;28;20055;-70
2022/03/12 12:05:58;;;;;;;7.78;4.68;;;;;;;;;;5050402;28;20609;-70
2022/03/12 12:08:25;;;;;;;7.53;3.95;;;;;;;;;;5050709;28;20047;-70
2022/03/12 12:10:54;;;;;;;7.82;3.97;;;;;;;;;;5048688;28;20037;-70
2022/03/12 12:13:21;;;;;;;7.43;3.78;;;;;;;;;;5047763;28;20067;-70
2022/03/12 12:15:48;;;;;;;8.00;4.15;;;;;;;;;;5044955;28;20033;-69
2022/03/12 12:18:14;;;;;;;8.07;4.25;;;;;;;;;;5052320;28;20563;-70
2022/03/12 12:20:41;;;;;;;9.50;4.20;;;;;;;;;;5048349;28;20060;-70
2022/03/12 12:23:07;;;;;;;7.85;4.13;;;;;;;;;;5026029;28;20090;-69
2022/03/12 12:25:34;;;;;;;9.10;3.83;;;;;;;;;;5031033;28;20153;-70
2022/03/12 12:28:01;;;;;;;8.25;3.80;;;;;;;;;;5063748;28;20178;-70
2022/03/12 12:30:38;;;;;;;8.38;4.00;;;;;;;;;;5061839;28;20045;-70
2022/03/12 12:33:13;;;;;;;6.72;3.50;;;;;;;;;;5045174;28;20037;-70
2022/03/12 12:35:39;;;;;;;8.90;3.78;;;;;;;;;;5042764;28;20029;-70
2022/03/12 12:38:08;;;;;;;8.23;4.20;;;;;;;;;;5045024;28;20530;-70
2022/03/12 12:40:38;;;;;;;8.23;4.10;;;;;;;;;;5045512;28;20060;-69
2022/03/12 12:43:09;;;;;;;7.63;4.00;;;;;;;;;;5045738;28;20059;-70
2022/03/12 12:45:36;;;;;;;7.57;3.72;;;;;;;;;;5049423;28;20048;-70
2022/03/12 12:48:16;;;;;;;6.95;3.60;;;;;;;;;;5048979;28;20084;-70
2022/03/12 12:51:02;;;;;;;7.18;3.65;;;;;;;;;;5048695;28;20083;-70
2022/03/12 12:53:29;;;;;;;6.78;3.53;;;;;;;;;;5054893;28;20051;-70
2022/03/12 12:56:14;;;;;;;7.20;4.03;;;;;;;;;;5047166;28;20043;-70
2022/03/12 12:58:47;;;;;;;7.55;3.42;;;;;;;;;;5057847;28;20045;-70
2022/03/12 13:01:17;;;;;;;6.82;3.38;;;;;;;;;;5056958;28;20772;-69
2022/03/12 13:03:47;;;;;;;6.57;3.13;;;;;;;;;;5064875;28;20051;-70
2022/03/12 13:06:13;;;;;;;7.25;3.40;;;;;;;;;;5063013;28;20041;-70
2022/03/12 13:08:43;;;;;;;6.57;3.45;;;;;;;;;;5065003;28;20102;-70
2022/03/12 13:11:30;;;;;;;7.30;3.42;;;;;;;;;;5051437;28;20032;-70
2022/03/12 13:14:00;;;;;;;6.32;3.45;;;;;;;;;;5051308;28;20412;-70
2022/03/12 13:16:27;;;;;;;7.55;3.22;;;;;;;;;;5046470;28;20040;-70
2022/03/12 13:18:53;;;;;;;6.72;3.25;;;;;;;;;;5051500;28;20596;-70
2022/03/12 13:21:27;;;;;;;7.55;3.35;;;;;;;;;;5054473;28;20068;-70
2022/03/12 13:23:53;;;;;;;6.57;3.00;;;;;;;;;;5050363;28;20135;-70
2022/03/12 13:26:19;;;;;;;7.38;3.67;;;;;;;;;;5032276;28;20057;-70
2022/03/12 13:28:49;;;;;;;6.10;2.88;;;;;;;;;;5050015;28;20037;-70
2022/03/12 13:31:16;;;;;;;5.97;2.97;;;;;;;;;;5039415;28;20800;-70
2022/03/12 13:33:43;;;;;;;7.50;3.60;;;;;;;;;;5030949;28;20047;-70
2022/03/12 13:36:22;;;;;;;7.55;3.50;;;;;;;;;;5047474;28;20674;-70
2022/03/12 13:38:49;;;;;;;7.22;3.22;;;;;;;;;;5043827;28;20136;-70
2022/03/12 13:41:15;;;;;;;6.35;2.80;;;;;;;;;;5053196;28;20052;-69
2022/03/12 13:43:42;;;;;;;6.43;2.80;;;;;;;;;;5047026;28;20627;-70
2022/03/12 13:46:08;;;;;;;5.30;2.83;;;;;;;;;;5062005;28;20048;-70
2022/03/12 13:48:34;;;;;;;7.22;3.10;;;;;;;;;;5046675;28;20729;-70
2022/03/12 13:51:00;;;;;;;6.90;3.08;;;;;;;;;;5046008;28;20076;-70
2022/03/12 13:53:29;;;;;;;5.85;2.90;;;;;;;;;;5062517;28;20040;-70
2022/03/12 13:56:05;;;;;;;6.10;3.22;;;;;;;;;;5060545;28;20093;-69
2022/03/12 13:58:31;;;;;;;5.95;3.00;;;;;;;;;;5063286;28;20044;-69
2022/03/12 14:00:59;;;;;;;7.70;3.20;;;;;;;;;;5062027;28;20044;-70
2022/03/12 14:03:28;;;;;;;6.13;2.95;;;;;;;;;;5046829;28;20055;-69
2022/03/12 14:05:54;;;;;;;6.90;3.00;;;;;;;;;;5061216;28;20083;-70
2022/03/12 14:08:22;;;;;;;6.95;3.08;;;;;;;;;;5063776;28;20076;-70
2022/03/12 14:10:55;;;;;;;7.15;2.75;;;;;;;;;;5058305;28;20126;-70
2022/03/12 14:13:21;;;;;;;8.50;3.13;;;;;;;;;;5045441;28;20037;-69
2022/03/12 14:15:48;;;;;;;6.78;3.28;;;;;;;;;;5048871;28;20044;-69
2022/03/12 14:18:25;;;;;;;6.38;2.80;;;;;;;;;;5062728;28;20135;-69
2022/03/12 14:20:52;;;;;;;8.02;3.15;;;;;;;;;;5061848;28;20048;-70
2022/03/12 14:23:22;;;;;;;7.50;2.67;;;;;;;;;;5064921;28;20036;-70
2022/03/12 14:25:49;;;;;;;6.63;2.90;;;;;;;;;;5061500;28;20087;-70
2022/03/12 14:28:15;;;;;;;6.65;2.80;;;;;;;;;;5055641;28;20055;-70
2022/03/12 14:30:41;;;;;;;5.28;2.58;;;;;;;;;;5026791;28;20205;-69
2022/03/12 14:33:07;;;;;;;5.60;2.70;;;;;;;;;;5018682;28;20043;-70
2022/03/12 14:35:34;;;;;;;7.10;2.78;;;;;;;;;;5030781;28;20052;-70
2022/03/12 14:38:01;;;;;;;6.60;2.72;;;;;;;;;;5062833;28;20070;-70
2022/03/12 14:40:28;;;;;;;6.22;2.75;;;;;;;;;;5061891;28;20131;-70
2022/03/12 14:43:00;;;;;;;5.82;2.67;;;;;;;;;;5062415;28;20040;-70
2022/03/12 14:45:27;;;;;;;5.30;2.40;;;;;;;;;;5062282;28;20045;-70